sensor_id;sensor_type;location;lat;lon;timestamp;temperature;humidity
4097;DHT22;2062;50.694;7.246;2023-10-31T00:01:32;13.00;70.80
4097;DHT22;2062;50.694;7.246;2023-10-31T00:03:59;13.00;70.90
4097;DHT22;2062;50.694;7.246;2023-10-31T00:06:27;12.90;70.90
4097;DHT22;2062;50.694;7.246;2023-10-31T00:08:54;12.90;71.60
4097;DHT22;2062;50.694;7.246;2023-10-31T00:11:21;12.90;70.80
4097;DHT22;2062;50.694;7.246;2023-10-31T00:13:48;12.90;70.60
4097;DHT22;2062;50.694;7.246;2023-10-31T00:16:15;12.90;70.70
4097;DHT22;2062;50.694;7.246;2023-10-31T00:18:42;12.90;70.40
4097;DHT22;2062;50.694;7.246;2023-10-31T00:21:08;12.80;70.30
4097;DHT22;2062;50.694;7.246;2023-10-31T00:23:43;12.80;70.20
4097;DHT22;2062;50.694;7.246;2023-10-31T00:26:10;12.80;70.00
4097;DHT22;2062;50.694;7.246;2023-10-31T00:28:37;12.70;70.10
4097;DHT22;2062;50.694;7.246;2023-10-31T00:31:04;12.70;70.00
4097;DHT22;2062;50.694;7.246;2023-10-31T00:33:32;12.70;69.90
4097;DHT22;2062;50.694;7.246;2023-10-31T00:35:59;12.70;70.00
4097;DHT22;2062;50.694;7.246;2023-10-31T00:38:26;12.70;70.00
4097;DHT22;2062;50.694;7.246;2023-10-31T00:40:54;12.70;69.90
4097;DHT22;2062;50.694;7.246;2023-10-31T00:43:20;12.60;69.60
4097;DHT22;2062;50.694;7.246;2023-10-31T00:45:47;12.70;69.90
4097;DHT22;2062;50.694;7.246;2023-10-31T00:48:14;12.60;69.70
4097;DHT22;2062;50.694;7.246;2023-10-31T00:50:41;12.60;69.80
4097;DHT22;2062;50.694;7.246;2023-10-31T00:53:08;12.60;69.70
4097;DHT22;2062;50.694;7.246;2023-10-31T00:55:34;12.60;69.70
4097;DHT22;2062;50.694;7.246;2023-10-31T00:58:02;12.60;69.80
4097;DHT22;2062;50.694;7.246;2023-10-31T01:00:29;12.60;69.80
4097;DHT22;2062;50.694;7.246;2023-10-31T01:02:57;12.60;69.70
4097;DHT22;2062;50.694;7.246;2023-10-31T01:05:24;12.60;69.80
4097;DHT22;2062;50.694;7.246;2023-10-31T01:07:52;12.50;69.70
4097;DHT22;2062;50.694;7.246;2023-10-31T01:10:19;12.50;69.70
4097;DHT22;2062;50.694;7.246;2023-10-31T01:12:45;12.50;69.80
4097;DHT22;2062;50.694;7.246;2023-10-31T01:15:14;12.60;69.80
4097;DHT22;2062;50.694;7.246;2023-10-31T01:17:40;12.60;69.70
4097;DHT22;2062;50.694;7.246;2023-10-31T01:20:08;12.50;69.60
4097;DHT22;2062;50.694;7.246;2023-10-31T01:22:35;12.50;69.50
4097;DHT22;2062;50.694;7.246;2023-10-31T01:25:02;12.50;69.50
4097;DHT22;2062;50.694;7.246;2023-10-31T01:27:29;12.50;69.40
4097;DHT22;2062;50.694;7.246;2023-10-31T01:29:56;12.40;69.20
4097;DHT22;2062;50.694;7.246;2023-10-31T01:32:24;12.40;69.40
4097;DHT22;2062;50.694;7.246;2023-10-31T01:34:51;12.40;69.20
4097;DHT22;2062;50.694;7.246;2023-10-31T01:37:18;12.40;69.60
4097;DHT22;2062;50.694;7.246;2023-10-31T01:39:46;12.40;69.20
4097;DHT22;2062;50.694;7.246;2023-10-31T01:42:13;12.40;69.30
4097;DHT22;2062;50.694;7.246;2023-10-31T01:44:41;12.40;69.20
4097;DHT22;2062;50.694;7.246;2023-10-31T01:47:07;12.30;69.30
4097;DHT22;2062;50.694;7.246;2023-10-31T01:49:36;12.30;69.30
4097;DHT22;2062;50.694;7.246;2023-10-31T01:52:03;12.30;69.30
4097;DHT22;2062;50.694;7.246;2023-10-31T01:54:31;12.30;69.20
4097;DHT22;2062;50.694;7.246;2023-10-31T01:56:59;12.30;69.20
4097;DHT22;2062;50.694;7.246;2023-10-31T01:59:27;12.30;69.20
4097;DHT22;2062;50.694;7.246;2023-10-31T02:01:54;12.30;69.20
4097;DHT22;2062;50.694;7.246;2023-10-31T02:04:21;12.30;69.20
4097;DHT22;2062;50.694;7.246;2023-10-31T02:06:48;12.30;69.10
4097;DHT22;2062;50.694;7.246;2023-10-31T02:09:15;12.20;68.90
4097;DHT22;2062;50.694;7.246;2023-10-31T02:11:42;12.30;69.00
4097;DHT22;2062;50.694;7.246;2023-10-31T02:14:09;12.20;68.80
4097;DHT22;2062;50.694;7.246;2023-10-31T02:16:36;12.20;68.70
4097;DHT22;2062;50.694;7.246;2023-10-31T02:19:03;12.20;68.50
4097;DHT22;2062;50.694;7.246;2023-10-31T02:21:31;12.10;68.50
4097;DHT22;2062;50.694;7.246;2023-10-31T02:24:01;12.10;68.40
4097;DHT22;2062;50.694;7.246;2023-10-31T02:26:29;12.10;68.40
4097;DHT22;2062;50.694;7.246;2023-10-31T02:28:56;12.00;68.30
4097;DHT22;2062;50.694;7.246;2023-10-31T02:31:23;12.00;68.30
4097;DHT22;2062;50.694;7.246;2023-10-31T02:33:50;12.00;68.30
4097;DHT22;2062;50.694;7.246;2023-10-31T02:36:17;11.90;68.30
4097;DHT22;2062;50.694;7.246;2023-10-31T02:38:44;11.90;68.30
4097;DHT22;2062;50.694;7.246;2023-10-31T02:41:12;11.80;68.20
4097;DHT22;2062;50.694;7.246;2023-10-31T02:43:40;11.80;68.10
4097;DHT22;2062;50.694;7.246;2023-10-31T02:46:07;11.70;68.10
4097;DHT22;2062;50.694;7.246;2023-10-31T02:48:34;11.70;68.10
4097;DHT22;2062;50.694;7.246;2023-10-31T02:51:05;11.60;67.90
4097;DHT22;2062;50.694;7.246;2023-10-31T02:53:32;11.50;68.00
4097;DHT22;2062;50.694;7.246;2023-10-31T02:55:58;11.60;68.10
4097;DHT22;2062;50.694;7.246;2023-10-31T02:58:27;11.50;68.10
4097;DHT22;2062;50.694;7.246;2023-10-31T03:00:53;11.50;68.10
4097;DHT22;2062;50.694;7.246;2023-10-31T03:03:20;11.40;68.00
4097;DHT22;2062;50.694;7.246;2023-10-31T03:05:47;11.40;68.10
4097;DHT22;2062;50.694;7.246;2023-10-31T03:08:14;11.40;68.10
4097;DHT22;2062;50.694;7.246;2023-10-31T03:10:47;11.30;68.20
4097;DHT22;2062;50.694;7.246;2023-10-31T03:13:16;11.30;68.20
4097;DHT22;2062;50.694;7.246;2023-10-31T03:15:44;11.30;68.30
4097;DHT22;2062;50.694;7.246;2023-10-31T03:18:11;11.30;68.50
4097;DHT22;2062;50.694;7.246;2023-10-31T03:20:40;11.20;68.30
4097;DHT22;2062;50.694;7.246;2023-10-31T03:23:06;11.20;68.40
4097;DHT22;2062;50.694;7.246;2023-10-31T03:25:33;11.30;68.50
4097;DHT22;2062;50.694;7.246;2023-10-31T03:28:00;11.20;68.40
4097;DHT22;2062;50.694;7.246;2023-10-31T03:30:27;11.20;68.40
4097;DHT22;2062;50.694;7.246;2023-10-31T03:32:55;11.20;68.40
4097;DHT22;2062;50.694;7.246;2023-10-31T03:35:22;11.20;68.40
4097;DHT22;2062;50.694;7.246;2023-10-31T03:37:48;11.20;68.50
4097;DHT22;2062;50.694;7.246;2023-10-31T03:40:15;11.20;68.50
4097;DHT22;2062;50.694;7.246;2023-10-31T03:42:42;11.20;68.60
4097;DHT22;2062;50.694;7.246;2023-10-31T03:45:09;11.10;68.60
4097;DHT22;2062;50.694;7.246;2023-10-31T03:47:36;11.20;68.60
4097;DHT22;2062;50.694;7.246;2023-10-31T03:50:05;11.20;68.70
4097;DHT22;2062;50.694;7.246;2023-10-31T03:52:32;11.20;68.70
4097;DHT22;2062;50.694;7.246;2023-10-31T03:54:59;11.10;68.80
4097;DHT22;2062;50.694;7.246;2023-10-31T03:57:26;11.20;68.80
4097;DHT22;2062;50.694;7.246;2023-10-31T03:59:52;11.20;68.90
4097;DHT22;2062;50.694;7.246;2023-10-31T04:02:19;11.20;68.90
4097;DHT22;2062;50.694;7.246;2023-10-31T04:04:46;11.20;69.00
4097;DHT22;2062;50.694;7.246;2023-10-31T04:07:14;11.10;69.10
4097;DHT22;2062;50.694;7.246;2023-10-31T04:09:41;11.20;69.20
4097;DHT22;2062;50.694;7.246;2023-10-31T04:12:09;11.20;69.20
4097;DHT22;2062;50.694;7.246;2023-10-31T04:14:35;11.20;69.20
4097;DHT22;2062;50.694;7.246;2023-10-31T04:17:03;11.20;69.10
4097;DHT22;2062;50.694;7.246;2023-10-31T04:19:29;11.20;69.20
4097;DHT22;2062;50.694;7.246;2023-10-31T04:21:56;11.20;69.20
4097;DHT22;2062;50.694;7.246;2023-10-31T04:24:24;11.20;69.30
4097;DHT22;2062;50.694;7.246;2023-10-31T04:26:51;11.10;69.30
4097;DHT22;2062;50.694;7.246;2023-10-31T04:29:18;11.20;69.40
4097;DHT22;2062;50.694;7.246;2023-10-31T04:31:45;11.20;69.30
4097;DHT22;2062;50.694;7.246;2023-10-31T04:34:12;11.20;69.40
4097;DHT22;2062;50.694;7.246;2023-10-31T04:36:39;11.20;69.40
4097;DHT22;2062;50.694;7.246;2023-10-31T04:39:06;11.20;69.40
4097;DHT22;2062;50.694;7.246;2023-10-31T04:41:34;11.20;69.40
4097;DHT22;2062;50.694;7.246;2023-10-31T04:44:01;11.20;69.60
4097;DHT22;2062;50.694;7.246;2023-10-31T04:46:28;11.20;69.60
4097;DHT22;2062;50.694;7.246;2023-10-31T04:48:56;11.20;69.70
4097;DHT22;2062;50.694;7.246;2023-10-31T04:51:23;11.20;69.80
4097;DHT22;2062;50.694;7.246;2023-10-31T04:53:49;11.30;70.10
4097;DHT22;2062;50.694;7.246;2023-10-31T04:56:17;11.30;70.30
4097;DHT22;2062;50.694;7.246;2023-10-31T04:58:45;11.20;70.50
4097;DHT22;2062;50.694;7.246;2023-10-31T05:01:13;11.30;70.40
4097;DHT22;2062;50.694;7.246;2023-10-31T05:03:40;11.20;70.40
4097;DHT22;2062;50.694;7.246;2023-10-31T05:06:07;11.20;70.40
4097;DHT22;2062;50.694;7.246;2023-10-31T05:08:33;11.20;70.60
4097;DHT22;2062;50.694;7.246;2023-10-31T05:11:00;11.20;70.50
4097;DHT22;2062;50.694;7.246;2023-10-31T05:13:27;11.20;70.60
4097;DHT22;2062;50.694;7.246;2023-10-31T05:15:56;11.30;70.90
4097;DHT22;2062;50.694;7.246;2023-10-31T05:18:23;11.20;70.60
4097;DHT22;2062;50.694;7.246;2023-10-31T05:20:49;11.20;70.60
4097;DHT22;2062;50.694;7.246;2023-10-31T05:23:16;11.20;70.80
4097;DHT22;2062;50.694;7.246;2023-10-31T05:25:43;11.20;70.70
4097;DHT22;2062;50.694;7.246;2023-10-31T05:28:10;11.20;70.70
4097;DHT22;2062;50.694;7.246;2023-10-31T05:30:36;11.20;70.80
4097;DHT22;2062;50.694;7.246;2023-10-31T05:33:05;11.20;71.60
4097;DHT22;2062;50.694;7.246;2023-10-31T05:35:32;11.20;70.80
4097;DHT22;2062;50.694;7.246;2023-10-31T05:37:59;11.20;70.80
4097;DHT22;2062;50.694;7.246;2023-10-31T05:40:26;11.20;70.90
4097;DHT22;2062;50.694;7.246;2023-10-31T05:42:54;11.20;70.90
4097;DHT22;2062;50.694;7.246;2023-10-31T05:45:22;11.20;71.00
4097;DHT22;2062;50.694;7.246;2023-10-31T05:47:49;11.20;71.10
4097;DHT22;2062;50.694;7.246;2023-10-31T05:50:17;11.10;71.10
4097;DHT22;2062;50.694;7.246;2023-10-31T05:52:44;11.20;71.00
4097;DHT22;2062;50.694;7.246;2023-10-31T05:55:11;11.10;72.00
4097;DHT22;2062;50.694;7.246;2023-10-31T05:57:38;11.20;71.20
4097;DHT22;2062;50.694;7.246;2023-10-31T06:03:27;11.20;71.40
4097;DHT22;2062;50.694;7.246;2023-10-31T06:05:55;11.20;71.30
4097;DHT22;2062;50.694;7.246;2023-10-31T06:08:21;11.10;71.30
4097;DHT22;2062;50.694;7.246;2023-10-31T06:10:49;11.10;71.30
4097;DHT22;2062;50.694;7.246;2023-10-31T06:13:16;11.10;71.30
4097;DHT22;2062;50.694;7.246;2023-10-31T06:15:43;11.10;71.30
4097;DHT22;2062;50.694;7.246;2023-10-31T06:18:10;11.20;71.40
4097;DHT22;2062;50.694;7.246;2023-10-31T06:20:36;11.10;71.30
4097;DHT22;2062;50.694;7.246;2023-10-31T06:23:06;11.10;71.30
4097;DHT22;2062;50.694;7.246;2023-10-31T06:25:33;11.20;71.30
4097;DHT22;2062;50.694;7.246;2023-10-31T06:28:00;11.10;71.30
4097;DHT22;2062;50.694;7.246;2023-10-31T06:30:26;11.10;71.30
4097;DHT22;2062;50.694;7.246;2023-10-31T06:32:53;11.10;71.30
4097;DHT22;2062;50.694;7.246;2023-10-31T06:35:20;11.10;71.30
4097;DHT22;2062;50.694;7.246;2023-10-31T06:37:47;11.10;71.20
4097;DHT22;2062;50.694;7.246;2023-10-31T06:40:15;11.20;71.10
4097;DHT22;2062;50.694;7.246;2023-10-31T06:42:42;11.10;71.20
4097;DHT22;2062;50.694;7.246;2023-10-31T06:45:09;11.20;71.10
4097;DHT22;2062;50.694;7.246;2023-10-31T06:47:36;11.20;71.10
4097;DHT22;2062;50.694;7.246;2023-10-31T06:50:03;11.20;71.10
4097;DHT22;2062;50.694;7.246;2023-10-31T06:52:30;11.20;71.20
4097;DHT22;2062;50.694;7.246;2023-10-31T06:54:57;11.20;71.10
4097;DHT22;2062;50.694;7.246;2023-10-31T06:57:25;11.30;71.20
4097;DHT22;2062;50.694;7.246;2023-10-31T06:59:52;11.20;71.00
4097;DHT22;2062;50.694;7.246;2023-10-31T07:02:19;11.20;71.10
4097;DHT22;2062;50.694;7.246;2023-10-31T07:04:46;11.10;71.00
4097;DHT22;2062;50.694;7.246;2023-10-31T07:07:13;11.20;71.00
4097;DHT22;2062;50.694;7.246;2023-10-31T07:09:39;11.20;70.90
4097;DHT22;2062;50.694;7.246;2023-10-31T07:12:07;11.20;70.90
4097;DHT22;2062;50.694;7.246;2023-10-31T07:14:35;11.20;70.90
4097;DHT22;2062;50.694;7.246;2023-10-31T07:17:02;11.20;70.80
4097;DHT22;2062;50.694;7.246;2023-10-31T07:19:29;11.20;70.80
4097;DHT22;2062;50.694;7.246;2023-10-31T07:21:56;11.20;70.80
4097;DHT22;2062;50.694;7.246;2023-10-31T07:24:22;11.20;70.90
4097;DHT22;2062;50.694;7.246;2023-10-31T07:26:49;11.20;70.90
4097;DHT22;2062;50.694;7.246;2023-10-31T07:29:16;11.20;70.90
4097;DHT22;2062;50.694;7.246;2023-10-31T07:31:44;11.20;70.80
4097;DHT22;2062;50.694;7.246;2023-10-31T07:34:11;11.30;70.90
4097;DHT22;2062;50.694;7.246;2023-10-31T07:36:38;11.40;70.90
4097;DHT22;2062;50.694;7.246;2023-10-31T07:39:05;11.20;70.80
4097;DHT22;2062;50.694;7.246;2023-10-31T07:41:31;11.30;70.90
4097;DHT22;2062;50.694;7.246;2023-10-31T07:43:58;11.30;70.90
4097;DHT22;2062;50.694;7.246;2023-10-31T07:46:25;11.30;70.80
4097;DHT22;2062;50.694;7.246;2023-10-31T07:48:53;11.30;70.80
4097;DHT22;2062;50.694;7.246;2023-10-31T07:51:20;11.30;70.70
4097;DHT22;2062;50.694;7.246;2023-10-31T07:53:46;11.30;70.70
4097;DHT22;2062;50.694;7.246;2023-10-31T07:56:16;11.30;70.70
4097;DHT22;2062;50.694;7.246;2023-10-31T07:58:44;11.30;70.80
4097;DHT22;2062;50.694;7.246;2023-10-31T08:01:11;11.40;70.80
4097;DHT22;2062;50.694;7.246;2023-10-31T08:03:38;11.40;71.50
4097;DHT22;2062;50.694;7.246;2023-10-31T08:06:07;11.40;70.70
4097;DHT22;2062;50.694;7.246;2023-10-31T08:08:33;11.40;70.70
4097;DHT22;2062;50.694;7.246;2023-10-31T08:11:00;11.50;70.90
4097;DHT22;2062;50.694;7.246;2023-10-31T08:13:27;11.50;70.80
4097;DHT22;2062;50.694;7.246;2023-10-31T08:15:54;11.50;70.80
4097;DHT22;2062;50.694;7.246;2023-10-31T08:18:22;11.60;70.80
4097;DHT22;2062;50.694;7.246;2023-10-31T08:20:49;11.70;70.90
4097;DHT22;2062;50.694;7.246;2023-10-31T08:23:17;11.70;70.80
4097;DHT22;2062;50.694;7.246;2023-10-31T08:25:44;11.80;70.80
4097;DHT22;2062;50.694;7.246;2023-10-31T08:28:11;11.80;70.70
4097;DHT22;2062;50.694;7.246;2023-10-31T08:30:38;11.90;70.60
4097;DHT22;2062;50.694;7.246;2023-10-31T08:33:05;11.90;70.60
4097;DHT22;2062;50.694;7.246;2023-10-31T08:35:32;11.90;70.50
4097;DHT22;2062;50.694;7.246;2023-10-31T08:37:59;12.00;70.30
4097;DHT22;2062;50.694;7.246;2023-10-31T08:40:27;12.00;70.20
4097;DHT22;2062;50.694;7.246;2023-10-31T08:42:54;12.00;70.20
4097;DHT22;2062;50.694;7.246;2023-10-31T08:45:21;12.10;70.20
4097;DHT22;2062;50.694;7.246;2023-10-31T08:47:47;12.10;70.20
4097;DHT22;2062;50.694;7.246;2023-10-31T08:50:15;12.10;70.00
4097;DHT22;2062;50.694;7.246;2023-10-31T08:52:42;12.10;70.00
4097;DHT22;2062;50.694;7.246;2023-10-31T08:55:09;12.20;69.80
4097;DHT22;2062;50.694;7.246;2023-10-31T08:57:37;12.20;69.80
4097;DHT22;2062;50.694;7.246;2023-10-31T09:00:06;12.20;69.70
4097;DHT22;2062;50.694;7.246;2023-10-31T09:02:33;12.20;69.60
4097;DHT22;2062;50.694;7.246;2023-10-31T09:05:00;12.20;69.60
4097;DHT22;2062;50.694;7.246;2023-10-31T09:07:27;12.20;70.00
4097;DHT22;2062;50.694;7.246;2023-10-31T09:09:53;12.20;69.60
4097;DHT22;2062;50.694;7.246;2023-10-31T09:12:20;12.20;69.50
4097;DHT22;2062;50.694;7.246;2023-10-31T09:14:48;12.30;69.90
4097;DHT22;2062;50.694;7.246;2023-10-31T09:17:15;12.40;70.60
4097;DHT22;2062;50.694;7.246;2023-10-31T09:19:42;12.30;69.70
4097;DHT22;2062;50.694;7.246;2023-10-31T09:22:09;12.30;69.70
4097;DHT22;2062;50.694;7.246;2023-10-31T09:24:36;12.30;69.60
4097;DHT22;2062;50.694;7.246;2023-10-31T09:27:03;12.30;69.70
4097;DHT22;2062;50.694;7.246;2023-10-31T09:29:30;12.30;69.70
4097;DHT22;2062;50.694;7.246;2023-10-31T09:31:58;12.30;69.60
4097;DHT22;2062;50.694;7.246;2023-10-31T09:34:25;12.30;69.60
4097;DHT22;2062;50.694;7.246;2023-10-31T09:36:52;12.40;69.50
4097;DHT22;2062;50.694;7.246;2023-10-31T09:39:19;12.40;69.40
4097;DHT22;2062;50.694;7.246;2023-10-31T09:41:47;12.40;69.40
4097;DHT22;2062;50.694;7.246;2023-10-31T09:44:14;12.50;69.20
4097;DHT22;2062;50.694;7.246;2023-10-31T09:46:41;12.40;69.30
4097;DHT22;2062;50.694;7.246;2023-10-31T09:49:09;12.40;69.20
4097;DHT22;2062;50.694;7.246;2023-10-31T09:51:37;12.40;69.40
4097;DHT22;2062;50.694;7.246;2023-10-31T09:54:05;12.40;69.30
4097;DHT22;2062;50.694;7.246;2023-10-31T09:56:33;12.40;69.30
4097;DHT22;2062;50.694;7.246;2023-10-31T09:59:01;12.40;69.10
4097;DHT22;2062;50.694;7.246;2023-10-31T10:01:28;12.40;69.10
4097;DHT22;2062;50.694;7.246;2023-10-31T10:03:55;12.40;69.00
4097;DHT22;2062;50.694;7.246;2023-10-31T10:06:24;12.50;69.30
4097;DHT22;2062;50.694;7.246;2023-10-31T10:08:51;12.50;69.40
4097;DHT22;2062;50.694;7.246;2023-10-31T10:11:18;12.50;69.60
4097;DHT22;2062;50.694;7.246;2023-10-31T10:13:45;12.60;69.80
4097;DHT22;2062;50.694;7.246;2023-10-31T10:16:12;12.60;69.70
4097;DHT22;2062;50.694;7.246;2023-10-31T10:18:39;12.70;70.30
4097;DHT22;2062;50.694;7.246;2023-10-31T10:21:07;12.70;69.70
4097;DHT22;2062;50.694;7.246;2023-10-31T10:23:36;12.80;70.00
4097;DHT22;2062;50.694;7.246;2023-10-31T10:26:03;12.80;69.90
4097;DHT22;2062;50.694;7.246;2023-10-31T10:28:30;12.90;69.90
4097;DHT22;2062;50.694;7.246;2023-10-31T10:30:58;13.00;69.80
4097;DHT22;2062;50.694;7.246;2023-10-31T10:33:25;13.10;70.00
4097;DHT22;2062;50.694;7.246;2023-10-31T10:35:52;13.10;69.40
4097;DHT22;2062;50.694;7.246;2023-10-31T10:38:22;13.20;69.60
4097;DHT22;2062;50.694;7.246;2023-10-31T10:40:50;13.20;69.50
4097;DHT22;2062;50.694;7.246;2023-10-31T10:43:21;13.30;69.00
4097;DHT22;2062;50.694;7.246;2023-10-31T10:45:53;13.40;69.20
4097;DHT22;2062;50.694;7.246;2023-10-31T10:48:22;13.40;67.80
4097;DHT22;2062;50.694;7.246;2023-10-31T10:50:55;13.50;67.80
4097;DHT22;2062;50.694;7.246;2023-10-31T10:53:24;13.50;67.50
4097;DHT22;2062;50.694;7.246;2023-10-31T10:55:57;13.50;67.70
4097;DHT22;2062;50.694;7.246;2023-10-31T10:58:33;13.60;67.40
4097;DHT22;2062;50.694;7.246;2023-10-31T11:01:01;13.60;66.70
4097;DHT22;2062;50.694;7.246;2023-10-31T11:03:29;13.60;66.70
4097;DHT22;2062;50.694;7.246;2023-10-31T11:05:57;13.80;66.70
4097;DHT22;2062;50.694;7.246;2023-10-31T11:08:24;13.70;66.60
4097;DHT22;2062;50.694;7.246;2023-10-31T11:10:54;13.70;66.90
4097;DHT22;2062;50.694;7.246;2023-10-31T11:13:22;13.80;66.60
4097;DHT22;2062;50.694;7.246;2023-10-31T11:15:53;13.70;66.50
4097;DHT22;2062;50.694;7.246;2023-10-31T11:18:22;13.70;65.70
4097;DHT22;2062;50.694;7.246;2023-10-31T11:20:50;13.70;66.00
4097;DHT22;2062;50.694;7.246;2023-10-31T11:23:17;13.70;66.20
4097;DHT22;2062;50.694;7.246;2023-10-31T11:25:44;13.70;65.80
4097;DHT22;2062;50.694;7.246;2023-10-31T11:28:13;13.70;65.70
4097;DHT22;2062;50.694;7.246;2023-10-31T11:30:41;13.80;66.20
4097;DHT22;2062;50.694;7.246;2023-10-31T11:33:11;13.80;66.00
4097;DHT22;2062;50.694;7.246;2023-10-31T11:35:40;13.80;66.00
4097;DHT22;2062;50.694;7.246;2023-10-31T11:38:08;13.80;65.80
4097;DHT22;2062;50.694;7.246;2023-10-31T11:40:37;13.80;65.80
4097;DHT22;2062;50.694;7.246;2023-10-31T11:43:05;13.90;66.00
4097;DHT22;2062;50.694;7.246;2023-10-31T11:45:37;13.90;65.20
4097;DHT22;2062;50.694;7.246;2023-10-31T11:48:07;13.90;65.70
4097;DHT22;2062;50.694;7.246;2023-10-31T11:50:36;13.90;66.00
4097;DHT22;2062;50.694;7.246;2023-10-31T11:53:05;14.00;65.60
4097;DHT22;2062;50.694;7.246;2023-10-31T11:55:39;14.00;65.50
4097;DHT22;2062;50.694;7.246;2023-10-31T11:58:17;14.00;65.70
4097;DHT22;2062;50.694;7.246;2023-10-31T12:00:47;14.00;63.90
4097;DHT22;2062;50.694;7.246;2023-10-31T12:03:16;14.10;65.20
4097;DHT22;2062;50.694;7.246;2023-10-31T12:05:51;14.10;65.90
4097;DHT22;2062;50.694;7.246;2023-10-31T12:08:25;14.10;65.20
4097;DHT22;2062;50.694;7.246;2023-10-31T12:10:52;14.20;64.60
4097;DHT22;2062;50.694;7.246;2023-10-31T12:13:19;14.20;65.20
4097;DHT22;2062;50.694;7.246;2023-10-31T12:15:53;14.30;65.30
4097;DHT22;2062;50.694;7.246;2023-10-31T12:18:20;14.40;64.90
4097;DHT22;2062;50.694;7.246;2023-10-31T12:20:47;14.40;64.50
4097;DHT22;2062;50.694;7.246;2023-10-31T12:23:14;14.50;64.40
4097;DHT22;2062;50.694;7.246;2023-10-31T12:25:46;14.60;64.10
4097;DHT22;2062;50.694;7.246;2023-10-31T12:28:17;14.50;64.10
4097;DHT22;2062;50.694;7.246;2023-10-31T12:30:45;14.60;63.80
4097;DHT22;2062;50.694;7.246;2023-10-31T12:33:14;14.60;63.20
4097;DHT22;2062;50.694;7.246;2023-10-31T12:35:41;14.70;63.20
4097;DHT22;2062;50.694;7.246;2023-10-31T12:38:10;14.70;62.40
4097;DHT22;2062;50.694;7.246;2023-10-31T12:40:39;14.60;62.70
4097;DHT22;2062;50.694;7.246;2023-10-31T12:43:06;14.70;63.20
4097;DHT22;2062;50.694;7.246;2023-10-31T12:45:33;14.70;63.40
4097;DHT22;2062;50.694;7.246;2023-10-31T12:48:01;14.70;63.60
4097;DHT22;2062;50.694;7.246;2023-10-31T12:50:30;14.80;63.60
4097;DHT22;2062;50.694;7.246;2023-10-31T12:52:57;14.90;63.70
4097;DHT22;2062;50.694;7.246;2023-10-31T12:55:26;15.00;63.30
4097;DHT22;2062;50.694;7.246;2023-10-31T12:57:54;15.10;63.00
4097;DHT22;2062;50.694;7.246;2023-10-31T13:00:22;15.20;62.50
4097;DHT22;2062;50.694;7.246;2023-10-31T13:02:58;15.30;62.40
4097;DHT22;2062;50.694;7.246;2023-10-31T13:05:26;15.20;60.80
4097;DHT22;2062;50.694;7.246;2023-10-31T13:07:55;15.10;60.70
4097;DHT22;2062;50.694;7.246;2023-10-31T13:10:23;15.20;60.20
4097;DHT22;2062;50.694;7.246;2023-10-31T13:12:51;15.10;60.00
4097;DHT22;2062;50.694;7.246;2023-10-31T13:15:21;15.10;60.40
4097;DHT22;2062;50.694;7.246;2023-10-31T13:17:48;15.00;59.90
4097;DHT22;2062;50.694;7.246;2023-10-31T13:20:16;15.00;59.20
4097;DHT22;2062;50.694;7.246;2023-10-31T13:22:43;14.90;59.50
4097;DHT22;2062;50.694;7.246;2023-10-31T13:25:13;14.90;59.60
4097;DHT22;2062;50.694;7.246;2023-10-31T13:27:41;14.90;59.90
4097;DHT22;2062;50.694;7.246;2023-10-31T13:30:10;14.90;60.10
4097;DHT22;2062;50.694;7.246;2023-10-31T13:32:37;15.00;60.10
4097;DHT22;2062;50.694;7.246;2023-10-31T13:35:04;15.00;60.30
4097;DHT22;2062;50.694;7.246;2023-10-31T13:37:31;15.00;60.70
4097;DHT22;2062;50.694;7.246;2023-10-31T13:40:00;15.10;60.60
4097;DHT22;2062;50.694;7.246;2023-10-31T13:42:28;15.20;60.70
4097;DHT22;2062;50.694;7.246;2023-10-31T13:44:55;15.30;60.90
4097;DHT22;2062;50.694;7.246;2023-10-31T13:47:22;15.40;60.60
4097;DHT22;2062;50.694;7.246;2023-10-31T13:49:48;15.50;60.70
4097;DHT22;2062;50.694;7.246;2023-10-31T13:52:15;15.50;60.00
4097;DHT22;2062;50.694;7.246;2023-10-31T13:54:43;15.60;59.70
4097;DHT22;2062;50.694;7.246;2023-10-31T13:57:10;15.60;59.60
4097;DHT22;2062;50.694;7.246;2023-10-31T13:59:39;15.60;59.60
4097;DHT22;2062;50.694;7.246;2023-10-31T14:02:06;15.70;59.70
4097;DHT22;2062;50.694;7.246;2023-10-31T14:04:33;15.70;60.60
4097;DHT22;2062;50.694;7.246;2023-10-31T14:07:00;15.80;59.80
4097;DHT22;2062;50.694;7.246;2023-10-31T14:09:26;15.80;60.20
4097;DHT22;2062;50.694;7.246;2023-10-31T14:11:53;15.90;60.30
4097;DHT22;2062;50.694;7.246;2023-10-31T14:14:20;16.00;60.10
4097;DHT22;2062;50.694;7.246;2023-10-31T14:16:48;16.00;59.80
4097;DHT22;2062;50.694;7.246;2023-10-31T14:19:15;16.10;59.40
4097;DHT22;2062;50.694;7.246;2023-10-31T14:21:43;16.10;59.20
4097;DHT22;2062;50.694;7.246;2023-10-31T14:24:10;16.20;58.90
4097;DHT22;2062;50.694;7.246;2023-10-31T14:26:36;16.20;58.50
4097;DHT22;2062;50.694;7.246;2023-10-31T14:29:05;16.20;58.30
4097;DHT22;2062;50.694;7.246;2023-10-31T14:31:38;16.20;58.20
4097;DHT22;2062;50.694;7.246;2023-10-31T14:34:06;16.20;58.20
4097;DHT22;2062;50.694;7.246;2023-10-31T14:36:33;16.20;58.00
4097;DHT22;2062;50.694;7.246;2023-10-31T14:39:00;16.20;57.70
4097;DHT22;2062;50.694;7.246;2023-10-31T14:41:27;16.10;57.80
4097;DHT22;2062;50.694;7.246;2023-10-31T14:43:53;16.20;57.40
4097;DHT22;2062;50.694;7.246;2023-10-31T14:46:20;16.10;57.60
4097;DHT22;2062;50.694;7.246;2023-10-31T14:48:47;16.00;57.50
4097;DHT22;2062;50.694;7.246;2023-10-31T14:51:15;16.00;57.20
4097;DHT22;2062;50.694;7.246;2023-10-31T14:53:42;15.90;57.10
4097;DHT22;2062;50.694;7.246;2023-10-31T14:56:09;15.80;57.30
4097;DHT22;2062;50.694;7.246;2023-10-31T14:58:36;15.80;57.50
4097;DHT22;2062;50.694;7.246;2023-10-31T15:01:03;15.80;57.50
4097;DHT22;2062;50.694;7.246;2023-10-31T15:03:31;15.70;57.60
4097;DHT22;2062;50.694;7.246;2023-10-31T15:05:58;15.80;57.90
4097;DHT22;2062;50.694;7.246;2023-10-31T15:08:26;15.70;57.70
4097;DHT22;2062;50.694;7.246;2023-10-31T15:10:53;15.70;57.70
4097;DHT22;2062;50.694;7.246;2023-10-31T15:13:21;15.60;57.70
4097;DHT22;2062;50.694;7.246;2023-10-31T15:15:48;15.60;57.60
4097;DHT22;2062;50.694;7.246;2023-10-31T15:18:15;15.50;57.80
4097;DHT22;2062;50.694;7.246;2023-10-31T15:20:43;15.50;57.70
4097;DHT22;2062;50.694;7.246;2023-10-31T15:23:09;15.40;57.80
4097;DHT22;2062;50.694;7.246;2023-10-31T15:25:40;15.40;57.80
4097;DHT22;2062;50.694;7.246;2023-10-31T15:28:07;15.40;58.00
4097;DHT22;2062;50.694;7.246;2023-10-31T15:30:34;15.30;58.20
4097;DHT22;2062;50.694;7.246;2023-10-31T15:33:01;15.20;58.10
4097;DHT22;2062;50.694;7.246;2023-10-31T15:35:28;15.20;58.20
4097;DHT22;2062;50.694;7.246;2023-10-31T15:37:54;15.20;58.00
4097;DHT22;2062;50.694;7.246;2023-10-31T15:40:21;15.10;58.00
4097;DHT22;2062;50.694;7.246;2023-10-31T15:42:49;15.10;58.10
4097;DHT22;2062;50.694;7.246;2023-10-31T15:45:16;14.90;58.10
4097;DHT22;2062;50.694;7.246;2023-10-31T15:47:43;14.90;58.10
4097;DHT22;2062;50.694;7.246;2023-10-31T15:50:10;14.80;58.10
4097;DHT22;2062;50.694;7.246;2023-10-31T15:52:37;14.80;58.20
4097;DHT22;2062;50.694;7.246;2023-10-31T15:55:05;14.80;58.10
4097;DHT22;2062;50.694;7.246;2023-10-31T15:57:32;14.70;58.00
4097;DHT22;2062;50.694;7.246;2023-10-31T16:00:01;14.60;57.90
4097;DHT22;2062;50.694;7.246;2023-10-31T16:02:28;14.60;57.90
4097;DHT22;2062;50.694;7.246;2023-10-31T16:04:55;14.50;58.00
4097;DHT22;2062;50.694;7.246;2023-10-31T16:07:22;14.50;58.00